Time;durP1;ratioP1;P1;durP2;ratioP2;P2;SDS_P1;SDS_P2;PMS_P1;PMS_P2;Temp;Humidity;BMP_temperature;BMP_pressure;BME280_temperature;BME280_humidity;BME280_pressure;Samples;Min_cycle;Max_cycle;Signal;HPM_P1;HPM_P2
2021/12/21 00:00:17;;;;;;;16.73;10.50;;;-0.20;99.90;;;;;;5094147;28;20051;-76
2021/12/21 00:02:46;;;;;;;19.40;11.32;;;-0.30;99.90;;;;;;5094083;28;20056;-77
2021/12/21 00:05:19;;;;;;;19.80;11.13;;;1.20;99.90;;;;;;5094038;28;20087;-77
2021/12/21 00:07:47;;;;;;;15.18;10.18;;;0.60;99.90;;;;;;5094282;28;20036;-77
2021/12/21 00:10:14;;;;;;;19.40;10.93;;;-0.20;99.90;;;;;;5094165;28;20048;-77
2021/12/21 00:12:49;;;;;;;24.63;10.95;;;-0.30;99.90;;;;;;5058953;28;20048;-77
2021/12/21 00:15:23;;;;;;;14.88;10.00;;;-0.30;99.90;;;;;;5076004;28;20056;-78
2021/12/21 00:18:01;;;;;;;18.42;11.88;;;-0.30;99.90;;;;;;5093754;28;20120;-76
2021/12/21 00:20:34;;;;;;;22.35;10.60;;;-0.20;99.90;;;;;;5094049;28;20082;-75
2021/12/21 00:25:31;;;;;;;16.20;10.20;;;-0.30;99.90;;;;;;5093845;28;20241;-78
2021/12/21 00:27:57;;;;;;;23.40;11.35;;;-0.30;99.90;;;;;;5093632;28;20048;-78
2021/12/21 00:30:23;;;;;;;12.45;9.90;;;-0.30;99.90;;;;;;5093846;28;20044;-76
2021/12/21 00:32:49;;;;;;;15.98;10.10;;;-0.30;99.90;;;;;;5093898;28;20062;-79
2021/12/21 00:35:15;;;;;;;16.42;10.75;;;1.70;99.90;;;;;;5075692;28;20534;-76
2021/12/21 00:37:42;;;;;;;16.95;12.75;;;-0.30;99.90;;;;;;5109818;28;20083;-77
2021/12/21 00:40:09;;;;;;;18.10;11.43;;;0.90;99.90;;;;;;5093639;28;20055;-79
2021/12/21 00:42:35;;;;;;;16.85;12.20;;;-0.30;99.90;;;;;;5093550;28;20048;-77
2021/12/21 00:45:02;;;;;;;21.35;12.20;;;-0.40;99.90;;;;;;5093643;28;20048;-78
2021/12/21 00:47:28;;;;;;;17.35;11.75;;;1.40;99.90;;;;;;5093649;28;20047;-77
2021/12/21 00:49:59;;;;;;;21.15;11.75;;;-0.50;99.90;;;;;;5075545;28;20178;-76
2021/12/21 00:52:26;;;;;;;18.25;11.77;;;-0.50;99.90;;;;;;5093492;28;20052;-77
2021/12/21 00:54:51;;;;;;;15.25;10.13;;;-0.50;99.90;;;;;;5093364;28;20047;-76
2021/12/21 00:57:17;;;;;;;16.17;11.13;;;-0.50;99.90;;;;;;5075396;28;20521;-76
2021/12/21 00:59:43;;;;;;;16.67;10.15;;;-0.50;99.90;;;;;;5075491;28;20044;-78
2021/12/21 01:02:10;;;;;;;20.77;10.43;;;-0.40;99.90;;;;;;5075359;28;20052;-76
2021/12/21 01:04:41;;;;;;;16.63;11.57;;;-0.40;99.90;;;;;;5093396;28;20434;-78
2021/12/21 01:07:21;;;;;;;14.35;10.70;;;-0.50;99.90;;;;;;5093294;28;20040;-76
2021/12/21 01:12:19;;;;;;;;;;;-0.40;99.90;;;;;;5100632;28;20050;-76
2021/12/21 01:15:14;;;;;;;15.63;10.38;;;0.60;99.90;;;;;;5100085;28;19919;-77
2021/12/21 01:17:49;;;;;;;15.60;11.02;;;-0.50;99.90;;;;;;5100360;28;20578;-79
2021/12/21 01:20:30;;;;;;;17.85;10.90;;;-0.50;99.90;;;;;;5099757;28;20048;-79
2021/12/21 01:26:11;;;;;;;15.70;9.73;;;1.60;99.90;;;;;;5037225;28;20058;-77
2021/12/21 01:28:58;;;;;;;16.77;11.75;;;0.90;99.90;;;;;;5037379;28;20045;-76
2021/12/21 01:36:27;;;;;;;17.23;10.63;;;0.10;99.90;;;;;;5037311;28;20045;-76
2021/12/21 01:40:01;;;;;;;13.82;10.25;;;0.70;99.90;;;;;;5037355;28;20045;-77
2021/12/21 01:42:09;;;;;;;16.15;11.68;;;-0.50;99.90;;;;;;5020116;28;20496;-77
2021/12/21 01:49:34;;;;;;;17.65;11.32;;;1.40;99.90;;;;;;5037211;28;20467;-77
2021/12/21 01:50:05;;;;;;;14.60;10.63;;;1.70;99.90;;;;;;5037142;28;20045;-77
2021/12/21 01:52:31;;;;;;;;;;;-0.50;99.90;;;;;;5021062;28;20512;-79
2021/12/21 01:54:56;;;;;;;17.05;10.27;;;-0.50;99.90;;;;;;5037131;28;19927;-79
2021/12/21 01:57:23;;;;;;;15.65;9.98;;;0.70;99.90;;;;;;5037215;28;20049;-77
2021/12/21 01:59:49;;;;;;;17.63;10.73;;;0.20;99.90;;;;;;5037113;28;20045;-78
2021/12/21 02:02:19;;;;;;;13.73;9.95;;;1.10;99.90;;;;;;5068386;28;20091;-76
2021/12/21 02:04:44;;;;;;;10.68;8.77;;;1.40;99.90;;;;;;5064857;28;20048;-77
2021/12/21 02:07:11;;;;;;;14.52;9.60;;;1.30;99.90;;;;;;5099761;28;20406;-76
2021/12/21 02:09:37;;;;;;;14.05;9.35;;;0.70;99.90;;;;;;5099553;28;20090;-78
2021/12/21 02:12:22;;;;;;;15.93;10.10;;;-0.70;99.90;;;;;;5099453;28;20509;-79
2021/12/21 02:14:56;;;;;;;13.52;9.63;;;-0.70;99.90;;;;;;5081292;28;20043;-77
2021/12/21 02:23:07;;;;;;;14.68;9.52;;;-0.80;99.90;;;;;;5033534;28;20045;-79
2021/12/21 02:30:48;;;;;;;12.40;8.98;;;-0.70;99.90;;;;;;5033689;28;20068;-77
2021/12/21 02:33:15;;;;;;;16.80;9.95;;;0.30;99.90;;;;;;5033715;28;20541;-79
2021/12/21 02:35:42;;;;;;;14.23;8.82;;;1.40;99.90;;;;;;5033592;28;20057;-78
2021/12/21 02:38:08;;;;;;;15.77;10.18;;;-0.70;99.90;;;;;;5033629;28;20107;-77
2021/12/21 02:40:35;;;;;;;17.55;9.82;;;-0.80;99.90;;;;;;5017214;28;20050;-79
2021/12/21 02:43:01;;;;;;;14.60;9.68;;;0.10;99.90;;;;;;5033449;28;20471;-76
2021/12/21 02:45:27;;;;;;;14.98;8.10;;;-0.80;99.90;;;;;;5016924;28;20412;-78
2021/12/21 02:47:53;;;;;;;12.57;8.13;;;-0.80;99.90;;;;;;5033393;28;20049;-76
2021/12/21 02:50:19;;;;;;;13.70;8.38;;;0.20;99.90;;;;;;5033375;28;20436;-77
2021/12/21 02:52:46;;;;;;;12.20;8.70;;;-0.20;99.90;;;;;;5033257;28;20500;-79
2021/12/21 02:55:14;;;;;;;13.68;7.63;;;-0.90;99.90;;;;;;5085980;28;20060;-79
2021/12/21 02:57:40;;;;;;;15.35;8.82;;;-0.90;99.90;;;;;;5095675;28;20048;-78
2021/12/21 03:00:08;;;;;;;13.15;9.10;;;-0.90;99.90;;;;;;5095576;28;20044;-77
2021/12/21 03:02:34;;;;;;;12.57;9.48;;;-0.90;99.90;;;;;;5095290;28;20491;-79
2021/12/21 03:04:59;;;;;;;13.05;9.50;;;-0.90;99.90;;;;;;5095397;28;20106;-76
2021/12/21 03:10:25;;;;;;;14.18;8.05;;;0.30;99.90;;;;;;5052720;28;20397;-78
2021/12/21 03:15:28;;;;;;;11.32;7.97;;;-1.00;99.90;;;;;;5036318;28;20064;-77
2021/12/21 03:17:55;;;;;;;12.90;7.88;;;-1.10;99.90;;;;;;5052516;28;20089;-76
2021/12/21 03:20:22;;;;;;;15.18;8.00;;;-1.20;99.90;;;;;;5052593;28;20132;-78
2021/12/21 03:22:48;;;;;;;13.82;8.80;;;-1.30;99.90;;;;;;5052677;28;20112;-78
2021/12/21 03:25:15;;;;;;;12.38;7.72;;;-1.20;99.90;;;;;;5052654;28;20513;-77
2021/12/21 03:27:41;;;;;;;15.52;8.57;;;-1.20;99.90;;;;;;5052350;28;20089;-79
2021/12/21 03:30:10;;;;;;;12.75;8.68;;;-1.20;99.90;;;;;;5019280;28;20535;-78
2021/12/21 03:32:36;;;;;;;14.93;8.68;;;-1.10;99.90;;;;;;5052050;28;20420;-76
2021/12/21 03:35:02;;;;;;;12.85;9.27;;;-1.20;99.90;;;;;;5036098;28;20136;-76
2021/12/21 03:37:28;;;;;;;;;;;-1.10;99.90;;;;;;5052859;28;20045;-77
2021/12/21 03:39:55;;;;;;;15.25;8.90;;;-0.10;99.90;;;;;;5052317;28;20368;-76
2021/12/21 03:42:23;;;;;;;12.18;8.20;;;-0.60;99.90;;;;;;5052173;28;20060;-79
2021/12/21 03:44:49;;;;;;;11.32;8.60;;;-1.10;99.90;;;;;;5053491;28;20060;-77
2021/12/21 03:47:16;;;;;;;11.05;9.02;;;-1.10;99.90;;;;;;5094455;28;20044;-79
2021/12/21 03:52:10;;;;;;;12.43;8.82;;;-1.10;99.90;;;;;;5094647;28;20047;-78
2021/12/21 03:54:37;;;;;;;13.90;8.20;;;-1.10;99.90;;;;;;5094518;28;20076;-79
2021/12/21 03:57:03;;;;;;;13.35;8.80;;;-1.10;99.90;;;;;;5094682;28;20047;-79
2021/12/21 03:59:30;;;;;;;11.70;7.22;;;-1.10;99.90;;;;;;5094227;28;20445;-76
2021/12/21 04:01:56;;;;;;;15.70;8.82;;;-1.10;99.90;;;;;;5094322;28;20044;-76
2021/12/21 04:04:23;;;;;;;14.02;8.88;;;-1.20;99.90;;;;;;5094390;28;20083;-78
2021/12/21 04:06:49;;;;;;;13.40;7.63;;;-0.60;99.90;;;;;;5094379;28;20138;-77
2021/12/21 04:09:15;;;;;;;17.75;8.60;;;-0.80;99.90;;;;;;5094267;28;20509;-76
2021/12/21 04:11:41;;;;;;;14.65;8.30;;;-1.30;99.90;;;;;;5094172;28;20126;-77
2021/12/21 04:14:07;;;;;;;;;;;-1.20;99.90;;;;;;5076883;28;20051;-77
2021/12/21 04:16:34;;;;;;;11.80;7.82;;;-1.30;99.90;;;;;;5093901;28;19920;-76
2021/12/21 04:18:59;;;;;;;;;;;-1.10;99.90;;;;;;5094640;28;20048;-76
2021/12/21 04:21:25;;;;;;;12.20;7.97;;;-1.30;99.90;;;;;;5094084;28;20385;-78
2021/12/21 04:23:51;;;;;;;18.60;9.18;;;-1.50;99.90;;;;;;5094006;28;20132;-78
2021/12/21 04:26:17;;;;;;;16.10;9.57;;;-1.30;99.90;;;;;;5093849;28;20048;-77
2021/12/21 04:28:44;;;;;;;15.55;10.30;;;-1.30;99.90;;;;;;5075879;28;20043;-78
2021/12/21 04:31:10;;;;;;;;;;;-1.30;99.90;;;;;;5094173;28;20043;-75
2021/12/21 04:33:37;;;;;;;10.50;8.48;;;-1.30;99.90;;;;;;5092606;28;19920;-76
2021/12/21 04:36:04;;;;;;;14.25;8.95;;;-1.30;99.90;;;;;;5075850;28;20497;-78
2021/12/21 04:38:35;;;;;;;12.32;9.35;;;-1.30;99.90;;;;;;5093744;28;20044;-76
2021/12/21 04:41:16;;;;;;;13.68;7.10;;;-1.30;99.90;;;;;;5093661;28;20039;-77
2021/12/21 04:43:43;;;;;;;13.40;8.50;;;-1.30;99.90;;;;;;5092779;28;20487;-78
2021/12/21 04:46:10;;;;;;;13.68;8.82;;;-1.40;99.90;;;;;;5093497;28;20067;-78
2021/12/21 04:48:37;;;;;;;15.35;8.27;;;-1.40;99.90;;;;;;5093732;28;20083;-77
2021/12/21 04:51:03;;;;;;;16.45;9.02;;;-1.40;99.90;;;;;;5075740;28;20055;-76
2021/12/21 04:53:28;;;;;;;12.77;8.32;;;-1.40;99.90;;;;;;5093569;28;20046;-77
2021/12/21 04:55:54;;;;;;;16.92;9.75;;;-1.40;99.90;;;;;;5093437;28;20047;-77
2021/12/21 04:58:21;;;;;;;16.10;10.45;;;-1.50;99.90;;;;;;5075329;28;20425;-79
2021/12/21 05:00:47;;;;;;;;;;;-1.50;99.90;;;;;;5075385;28;20083;-79
2021/12/21 05:03:13;;;;;;;15.07;8.35;;;-0.30;99.90;;;;;;5075297;28;19920;-76
2021/12/21 05:05:39;;;;;;;14.85;9.57;;;-2.00;99.90;;;;;;5075375;28;20055;-79
2021/12/21 05:08:08;;;;;;;16.23;7.55;;;-1.60;99.90;;;;;;5093381;28;20441;-77
2021/12/21 05:10:46;;;;;;;15.93;8.27;;;-1.10;99.90;;;;;;5093440;28;20047;-75
2021/12/21 05:13:14;;;;;;;13.05;8.75;;;-0.40;99.90;;;;;;5093222;28;20145;-76
2021/12/21 05:15:40;;;;;;;14.00;8.23;;;-1.70;99.90;;;;;;5075315;28;20111;-78
2021/12/21 05:18:06;;;;;;;11.25;7.30;;;-1.70;99.90;;;;;;5092960;28;20122;-78
2021/12/21 05:20:31;;;;;;;9.77;6.30;;;-1.70;99.90;;;;;;5093202;28;20136;-75
2021/12/21 05:22:57;;;;;;;12.10;7.35;;;0.40;99.90;;;;;;5093210;28;20055;-77
2021/12/21 05:25:23;;;;;;;11.40;8.35;;;-0.20;99.90;;;;;;5093116;28;20040;-78
2021/12/21 05:27:48;;;;;;;14.02;8.85;;;-1.70;99.90;;;;;;5093043;28;20122;-77
2021/12/21 05:30:14;;;;;;;13.13;9.45;;;-1.70;99.90;;;;;;5075202;28;20044;-76
2021/12/21 05:32:40;;;;;;;14.90;8.77;;;-0.30;99.90;;;;;;5093454;28;20084;-78
2021/12/21 05:35:07;;;;;;;14.00;9.10;;;-0.10;99.90;;;;;;5093214;28;20044;-77
2021/12/21 05:37:34;;;;;;;13.55;8.63;;;-1.60;99.90;;;;;;5093048;28;20052;-74
2021/12/21 05:40:17;;;;;;;15.93;9.10;;;0.30;99.90;;;;;;5093123;28;20048;-79
2021/12/21 05:42:45;;;;;;;18.67;9.57;;;0.50;99.90;;;;;;5074980;28;20055;-78
2021/12/21 05:45:13;;;;;;;15.32;9.35;;;-1.60;99.90;;;;;;5075276;28;20502;-75
2021/12/21 05:47:40;;;;;;;17.98;8.90;;;-1.80;99.90;;;;;;5093032;28;20044;-78
2021/12/21 05:50:09;;;;;;;16.38;9.52;;;-0.30;99.90;;;;;;5093007;28;20522;-77
2021/12/21 05:52:35;;;;;;;12.45;9.18;;;-1.60;99.90;;;;;;5093072;28;20044;-77
2021/12/21 05:55:03;;;;;;;13.13;8.95;;;-1.60;99.90;;;;;;5093501;28;20044;-79
2021/12/21 05:57:28;;;;;;;14.55;7.95;;;-1.60;99.90;;;;;;5096459;28;20059;-76
2021/12/21 05:59:54;;;;;;;10.40;8.52;;;-0.30;99.90;;;;;;5097034;28;20054;-76
2021/12/21 06:02:21;;;;;;;16.35;8.10;;;-1.50;99.90;;;;;;5096797;28;20122;-77
2021/12/21 06:04:47;;;;;;;10.50;7.65;;;-1.70;99.90;;;;;;5096698;28;20040;-78
2021/12/21 06:07:13;;;;;;;13.85;7.90;;;-1.60;99.90;;;;;;5096590;28;20130;-77
2021/12/21 06:09:41;;;;;;;14.07;7.88;;;-0.20;99.90;;;;;;5078575;28;20040;-75
2021/12/21 06:27:47;;;;;;;11.95;9.35;;;-1.70;99.90;;;;;;5096255;28;20446;-79
2021/12/21 06:30:14;;;;;;;12.68;9.02;;;-1.70;99.90;;;;;;5096065;28;20044;-76
2021/12/21 06:32:39;;;;;;;14.18;8.90;;;-1.70;99.90;;;;;;5078089;28;20119;-76
2021/12/21 06:35:06;;;;;;;16.83;8.93;;;-1.70;99.90;;;;;;5095977;28;20131;-76
2021/12/21 06:37:32;;;;;;;16.70;10.00;;;-1.60;99.90;;;;;;5078045;28;20048;-77
2021/12/21 06:39:58;;;;;;;13.27;9.65;;;-1.60;99.90;;;;;;5096087;28;20044;-75
2021/12/21 06:42:24;;;;;;;17.70;10.32;;;-0.70;99.90;;;;;;5095941;28;20051;-77
2021/12/21 06:44:55;;;;;;;12.73;8.60;;;-1.60;99.90;;;;;;5077825;28;20113;-76
2021/12/21 06:52:51;;;;;;;13.20;9.18;;;-1.60;99.90;;;;;;5095742;28;20051;-77
2021/12/21 06:55:16;;;;;;;14.75;8.55;;;-1.60;99.90;;;;;;5095653;28;20048;-75
2021/12/21 06:57:43;;;;;;;16.15;9.02;;;-0.10;99.90;;;;;;5095563;28;20040;-74
2021/12/21 07:00:14;;;;;;;11.55;9.43;;;0.40;99.90;;;;;;5095432;28;20052;-77
2021/12/21 07:02:40;;;;;;;21.00;8.90;;;-1.60;99.90;;;;;;5077445;28;20048;-76
2021/12/21 07:05:07;;;;;;;;;;;-0.50;99.90;;;;;;5095915;28;20089;-79
2021/12/21 07:07:33;;;;;;;12.80;9.27;;;-1.60;99.90;;;;;;5110505;28;19926;-78
2021/12/21 07:10:02;;;;;;;12.82;9.63;;;-1.70;99.90;;;;;;5095527;28;20052;-75
2021/12/21 07:20:32;;;;;;;13.65;8.50;;;0.10;99.90;;;;;;5095039;28;20495;-75
2021/12/21 07:22:58;;;;;;;14.30;8.23;;;-1.70;99.90;;;;;;5095030;28;20085;-79
2021/12/21 07:25:27;;;;;;;13.18;7.78;;;-1.70;99.90;;;;;;5095056;28;20490;-77
2021/12/21 07:27:54;;;;;;;13.13;9.05;;;-1.10;99.90;;;;;;5076962;28;20126;-75
2021/12/21 07:30:20;;;;;;;13.95;8.88;;;-1.70;99.90;;;;;;5095059;28;20043;-77
2021/12/21 07:32:46;;;;;;;12.45;8.07;;;-1.70;99.90;;;;;;5076887;28;20486;-77
2021/12/21 07:35:12;;;;;;;13.13;8.30;;;0.00;99.90;;;;;;5094986;28;20071;-74
2021/12/21 07:37:38;;;;;;;13.45;7.05;;;-1.50;99.90;;;;;;5076981;28;20043;-78
2021/12/21 07:40:05;;;;;;;12.43;8.45;;;-2.00;99.90;;;;;;5094706;28;20513;-75
2021/12/21 07:42:31;;;;;;;11.77;9.27;;;-1.90;99.90;;;;;;5094442;28;20127;-78
2021/12/21 07:44:58;;;;;;;10.82;7.57;;;-1.90;99.90;;;;;;5094831;28;20108;-77
2021/12/21 07:47:24;;;;;;;10.43;7.03;;;-1.80;99.90;;;;;;5094814;28;20097;-77
2021/12/21 07:49:50;;;;;;;11.30;7.60;;;-1.90;99.90;;;;;;5094994;28;20092;-76
2021/12/21 07:52:16;;;;;;;11.02;7.75;;;-1.90;99.90;;;;;;5094619;28;20075;-78
2021/12/21 07:54:42;;;;;;;;;;;-0.90;99.90;;;;;;5094841;28;20101;-76
2021/12/21 07:57:08;;;;;;;15.40;8.00;;;-2.10;99.90;;;;;;5094582;28;19920;-76
2021/12/21 07:59:39;;;;;;;12.23;8.23;;;-0.90;99.90;;;;;;5076466;28;20055;-77
2021/12/21 08:02:05;;;;;;;10.60;7.80;;;-0.70;99.90;;;;;;5094301;28;20487;-77
2021/12/21 08:04:33;;;;;;;;;;;-1.80;99.90;;;;;;5076218;28;20091;-74
2021/12/21 08:07:05;;;;;;;15.55;8.40;;;-1.30;99.90;;;;;;5094298;28;19920;-78
2021/12/21 08:09:37;;;;;;;10.20;7.32;;;-1.90;99.90;;;;;;5094197;28;20046;-77
2021/12/21 08:12:16;;;;;;;11.23;7.82;;;-1.90;99.90;;;;;;5094658;28;20108;-76
2021/12/21 08:14:48;;;;;;;13.88;7.53;;;-1.90;99.90;;;;;;5094096;28;20046;-75
2021/12/21 08:17:15;;;;;;;13.20;7.25;;;-1.90;99.90;;;;;;5093927;28;20097;-77
2021/12/21 08:19:40;;;;;;;11.73;7.28;;;-1.90;99.90;;;;;;5075079;28;20059;-75
2021/12/21 08:22:06;;;;;;;9.93;7.82;;;-1.90;99.90;;;;;;5093898;28;20044;-77
2021/12/21 08:24:33;;;;;;;15.65;9.00;;;0.20;99.90;;;;;;5093760;28;20141;-75
2021/12/21 08:27:02;;;;;;;20.63;12.25;;;-1.90;99.90;;;;;;5109748;28;20055;-76
2021/12/21 08:29:28;;;;;;;17.55;11.90;;;-2.00;99.90;;;;;;5075902;28;20048;-75
2021/12/21 08:31:54;;;;;;;18.60;10.65;;;-0.40;99.90;;;;;;5093854;28;20048;-76
2021/12/21 08:34:21;;;;;;;13.73;9.55;;;0.10;99.90;;;;;;5093872;28;20044;-75
2021/12/21 08:36:47;;;;;;;11.75;9.82;;;-1.70;99.90;;;;;;5093767;28;20097;-75
2021/12/21 08:39:13;;;;;;;11.13;8.40;;;-1.70;99.90;;;;;;5075762;28;20052;-76
2021/12/21 08:41:42;;;;;;;16.45;7.88;;;0.10;99.90;;;;;;5093790;28;20164;-74
2021/12/21 08:44:10;;;;;;;11.55;7.65;;;-1.70;99.90;;;;;;5093731;28;20079;-74
2021/12/21 08:46:38;;;;;;;13.85;8.25;;;-1.70;99.90;;;;;;5059047;28;20044;-75
2021/12/21 08:49:04;;;;;;;14.77;8.77;;;-1.60;99.90;;;;;;5075545;28;20047;-75
2021/12/21 08:51:30;;;;;;;12.95;9.10;;;0.50;99.90;;;;;;5075710;28;20089;-74
2021/12/21 08:53:56;;;;;;;14.02;9.02;;;-0.50;99.90;;;;;;5093321;28;20036;-75
2021/12/21 08:56:21;;;;;;;12.25;7.82;;;-0.10;99.90;;;;;;5093367;28;20058;-78
2021/12/21 08:58:47;;;;;;;12.82;8.65;;;0.00;99.90;;;;;;5093538;28;20101;-74
2021/12/21 09:01:13;;;;;;;20.35;9.40;;;-1.50;99.90;;;;;;5093520;28;20094;-76
2021/12/21 09:03:39;;;;;;;12.93;8.45;;;-1.50;99.90;;;;;;5093423;28;20044;-76
2021/12/21 09:06:04;;;;;;;14.85;8.85;;;-1.40;99.90;;;;;;5058852;28;20048;-76
2021/12/21 09:08:30;;;;;;;15.60;8.23;;;0.60;99.90;;;;;;5093296;28;20040;-78
2021/12/21 09:11:02;;;;;;;12.98;9.20;;;-1.40;99.90;;;;;;5074878;28;20056;-75
2021/12/21 09:13:28;;;;;;;13.57;8.10;;;-1.30;99.90;;;;;;5075590;28;20098;-75
2021/12/21 09:15:54;;;;;;;12.43;8.45;;;-0.80;99.90;;;;;;5093147;28;20605;-77
2021/12/21 09:18:20;;;;;;;11.85;7.70;;;-1.20;99.90;;;;;;5093059;28;20139;-75
2021/12/21 09:20:45;;;;;;;9.70;8.65;;;-1.20;99.90;;;;;;5075164;28;20059;-75
2021/12/21 09:23:12;;;;;;;12.40;8.68;;;-1.20;99.90;;;;;;5092992;28;20044;-76
2021/12/21 09:25:38;;;;;;;14.95;8.45;;;-1.20;99.90;;;;;;5093269;28;20219;-79
2021/12/21 09:28:04;;;;;;;12.75;8.52;;;-0.70;99.90;;;;;;5075576;28;20055;-75
2021/12/21 09:30:30;;;;;;;14.50;8.48;;;-1.10;99.90;;;;;;5076591;28;20048;-75
2021/12/21 09:32:56;;;;;;;13.75;8.13;;;-1.10;99.90;;;;;;5096366;28;20048;-79
2021/12/21 09:35:22;;;;;;;;;;;-1.10;99.90;;;;;;5097624;28;20055;-75
2021/12/21 09:37:49;;;;;;;9.88;8.05;;;-2.40;99.90;;;;;;5078952;28;20004;-76
2021/12/21 09:40:19;;;;;;;11.85;8.15;;;-1.10;99.90;;;;;;5097350;28;20052;-75
2021/12/21 09:42:45;;;;;;;10.70;7.95;;;-1.00;99.90;;;;;;5079093;28;20048;-76
2021/12/21 09:45:11;;;;;;;10.82;7.32;;;-1.00;99.90;;;;;;5078960;28;20044;-77
2021/12/21 09:47:37;;;;;;;9.20;6.72;;;0.70;99.90;;;;;;5097037;28;20130;-75
2021/12/21 09:50:06;;;;;;;10.80;7.00;;;-1.00;99.90;;;;;;5096802;28;20119;-75
2021/12/21 09:52:33;;;;;;;10.93;7.47;;;-1.00;99.90;;;;;;5096812;28;20044;-76
2021/12/21 09:55:00;;;;;;;13.10;7.68;;;-0.90;99.90;;;;;;5096711;28;20094;-75
2021/12/21 09:57:27;;;;;;;16.10;7.85;;;-0.90;99.90;;;;;;5096911;28;20045;-78
2021/12/21 09:59:53;;;;;;;11.80;7.38;;;-0.80;99.90;;;;;;5096760;28;20079;-76
2021/12/21 10:02:22;;;;;;;9.38;7.57;;;-0.90;99.90;;;;;;5096790;28;20076;-75
2021/12/21 10:04:54;;;;;;;15.15;8.27;;;-0.70;99.90;;;;;;5096615;28;20040;-75
2021/12/21 10:07:22;;;;;;;14.07;7.65;;;-0.70;99.90;;;;;;5096419;28;20048;-76
2021/12/21 10:09:50;;;;;;;13.52;7.63;;;-0.60;99.90;;;;;;5096636;28;20055;-76
2021/12/21 10:12:32;;;;;;;12.43;6.45;;;-0.60;99.90;;;;;;5096596;28;20126;-78
2021/12/21 10:15:08;;;;;;;8.80;4.93;;;-0.50;99.90;;;;;;5061909;28;20055;-76
2021/12/21 10:17:35;;;;;;;7.72;4.00;;;-0.50;99.90;;;;;;5078104;28;20112;-76
2021/12/21 10:20:04;;;;;;;6.47;4.05;;;-0.50;99.90;;;;;;5095907;28;20496;-75
2021/12/21 10:22:30;;;;;;;8.13;4.03;;;-0.40;99.90;;;;;;5096475;28;20044;-76
2021/12/21 10:24:55;;;;;;;7.30;3.83;;;-0.40;99.90;;;;;;5077934;28;20078;-76
2021/12/21 10:27:24;;;;;;;7.38;3.85;;;-0.30;99.90;;;;;;5096279;28;20048;-78
2021/12/21 10:29:53;;;;;;;6.25;2.92;;;1.60;99.90;;;;;;5096080;28;20048;-77
2021/12/21 10:32:37;;;;;;;8.43;3.28;;;-0.20;99.90;;;;;;5096088;28;20396;-76
2021/12/21 10:35:09;;;;;;;9.35;3.42;;;-0.20;99.90;;;;;;5078442;28;20048;-77
2021/12/21 10:37:41;;;;;;;4.75;2.63;;;0.00;99.90;;;;;;5096111;28;20044;-79
2021/12/21 10:40:27;;;;;;;6.78;2.90;;;0.00;99.90;;;;;;5112069;28;20048;-77
2021/12/21 10:43:07;;;;;;;8.82;3.28;;;0.00;99.90;;;;;;5094602;28;20055;-79
2021/12/21 10:45:42;;;;;;;6.40;2.42;;;0.10;99.90;;;;;;5095931;28;20080;-76
2021/12/21 10:48:18;;;;;;;6.90;3.03;;;0.10;99.90;;;;;;5095985;28;20044;-75
2021/12/21 10:50:45;;;;;;;6.20;3.07;;;0.60;99.90;;;;;;5095873;28;20048;-76
2021/12/21 10:53:23;;;;;;;6.57;3.58;;;0.10;99.90;;;;;;5095710;28;20127;-77
2021/12/21 10:56:08;;;;;;;5.53;3.05;;;0.20;99.90;;;;;;5077619;28;20048;-79
2021/12/21 10:58:44;;;;;;;9.43;3.53;;;2.10;99.90;;;;;;5095672;28;20048;-77
2021/12/21 11:01:14;;;;;;;7.57;3.25;;;0.30;99.90;;;;;;5095437;28;20510;-77
2021/12/21 11:03:54;;;;;;;5.35;2.65;;;0.30;99.90;;;;;;5095317;28;20044;-77
2021/12/21 11:06:28;;;;;;;4.00;2.60;;;0.30;99.90;;;;;;5095282;28;20452;-76
2021/12/21 11:08:55;;;;;;;5.45;2.97;;;2.00;99.90;;;;;;5077480;28;20043;-75
2021/12/21 11:11:29;;;;;;;5.13;3.38;;;1.90;99.90;;;;;;5095477;28;20048;-76
2021/12/21 11:13:59;;;;;;;7.93;3.28;;;0.50;99.90;;;;;;5095307;28;20399;-76
2021/12/21 11:16:40;;;;;;;9.55;3.63;;;0.60;99.90;;;;;;5095247;28;20048;-75
2021/12/21 11:19:06;;;;;;;6.70;4.07;;;0.60;99.90;;;;;;5095279;28;20060;-75
2021/12/21 11:21:33;;;;;;;7.57;3.78;;;1.80;99.90;;;;;;5095273;28;20055;-75
2021/12/21 11:24:02;;;;;;;6.47;3.30;;;1.70;99.90;;;;;;5095107;28;20044;-79
2021/12/21 11:26:30;;;;;;;6.18;2.83;;;1.00;99.90;;;;;;5095187;28;20083;-78
2021/12/21 11:28:56;;;;;;;5.07;3.08;;;0.90;99.90;;;;;;5077145;28;20052;-76
2021/12/21 11:31:23;;;;;;;10.95;3.40;;;0.90;99.90;;;;;;5094813;28;20097;-75
2021/12/21 11:33:55;;;;;;;5.15;3.25;;;1.00;99.90;;;;;;5076928;28;20466;-79
2021/12/21 11:39:07;;;;;;;6.38;3.47;;;2.60;99.90;;;;;;5094755;28;20102;-78
2021/12/21 11:41:35;;;;;;;7.45;3.45;;;2.50;99.90;;;;;;5094714;28;20388;-76
2021/12/21 11:44:08;;;;;;;7.53;3.35;;;1.20;99.90;;;;;;5094411;28;20054;-78
2021/12/21 11:46:51;;;;;;;10.32;4.07;;;1.20;99.90;;;;;;5076595;28;20087;-77
2021/12/21 11:49:23;;;;;;;9.20;4.03;;;1.30;99.90;;;;;;5094629;28;20050;-79
2021/12/21 11:51:49;;;;;;;10.93;3.53;;;3.10;99.90;;;;;;5094522;28;20086;-75
2021/12/21 11:54:22;;;;;;;6.20;3.80;;;3.20;99.90;;;;;;5094286;28;20072;-78
2021/12/21 11:56:48;;;;;;;8.60;3.25;;;1.50;99.90;;;;;;5094481;28;20047;-77
2021/12/21 11:59:21;;;;;;;6.82;3.35;;;1.50;99.90;;;;;;5094612;28;20449;-77
2021/12/21 12:01:47;;;;;;;5.90;3.08;;;2.00;99.90;;;;;;5076595;28;20132;-77
2021/12/21 12:04:13;;;;;;;6.40;3.15;;;1.60;99.90;;;;;;5094332;28;20143;-77
2021/12/21 12:06:51;;;;;;;8.80;4.00;;;2.30;99.90;;;;;;5059072;28;20558;-77
2021/12/21 12:09:37;;;;;;;7.95;3.03;;;1.70;99.90;;;;;;5076235;28;20055;-77
2021/12/21 12:12:17;;;;;;;5.00;2.55;;;2.00;99.90;;;;;;5075810;28;20047;-77
2021/12/21 12:14:58;;;;;;;4.75;3.10;;;1.90;99.90;;;;;;5075602;28;20055;-76
2021/12/21 12:17:26;;;;;;;4.00;2.20;;;2.80;99.90;;;;;;5094017;28;20404;-77
2021/12/21 12:20:04;;;;;;;5.30;3.25;;;3.70;99.90;;;;;;5093824;28;20067;-76
2021/12/21 12:22:57;;;;;;;5.47;2.45;;;2.00;99.90;;;;;;5094121;28;20052;-78
2021/12/21 12:25:26;;;;;;;8.80;3.20;;;2.10;99.90;;;;;;5093958;28;20131;-76
2021/12/21 12:27:54;;;;;;;5.78;2.67;;;2.60;99.90;;;;;;5093829;28;20142;-78
2021/12/21 12:30:22;;;;;;;5.15;2.75;;;2.50;99.90;;;;;;5093972;28;20048;-78
2021/12/21 12:32:56;;;;;;;11.65;3.72;;;2.20;99.90;;;;;;5094020;28;20055;-77
2021/12/21 12:35:25;;;;;;;7.80;2.97;;;2.20;99.90;;;;;;5093854;28;20048;-76
2021/12/21 12:38:17;;;;;;;7.97;4.05;;;2.20;99.90;;;;;;5093980;28;20051;-77
2021/12/21 12:41:02;;;;;;;8.75;3.47;;;2.20;99.90;;;;;;5093421;28;20044;-78
2021/12/21 12:43:32;;;;;;;4.95;2.78;;;3.10;99.90;;;;;;5093951;28;20090;-76
2021/12/21 12:46:05;;;;;;;6.88;2.90;;;2.30;99.90;;;;;;5075616;28;20546;-77
2021/12/21 12:48:43;;;;;;;4.90;2.85;;;2.50;99.90;;;;;;5093567;28;20495;-76
2021/12/21 12:51:22;;;;;;;5.32;3.63;;;2.30;99.90;;;;;;5075433;28;20040;-76
2021/12/21 12:53:48;;;;;;;7.57;4.50;;;2.30;99.90;;;;;;5059161;28;20048;-80
2021/12/21 12:56:15;;;;;;;17.77;4.50;;;2.20;99.90;;;;;;5093578;28;20044;-78
2021/12/21 12:59:04;;;;;;;6.20;3.53;;;2.20;99.90;;;;;;5093523;28;20048;-77
2021/12/21 13:01:32;;;;;;;8.63;3.97;;;2.20;99.90;;;;;;5093301;28;20406;-76
2021/12/21 13:04:08;;;;;;;6.88;4.30;;;2.30;99.90;;;;;;5093453;28;20495;-77
2021/12/21 13:06:36;;;;;;;7.13;3.88;;;2.40;99.90;;;;;;5093018;28;20056;-76
2021/12/21 13:09:04;;;;;;;7.72;4.57;;;2.40;99.90;;;;;;5093348;28;20052;-75
2021/12/21 13:11:32;;;;;;;8.02;4.88;;;2.40;99.90;;;;;;5093420;28;20040;-77
2021/12/21 13:13:57;;;;;;;9.93;5.20;;;2.40;99.90;;;;;;5075573;28;20054;-79
2021/12/21 13:16:28;;;;;;;8.25;4.47;;;4.00;99.90;;;;;;5093196;28;20398;-79
2021/12/21 13:19:10;;;;;;;11.27;5.13;;;4.00;99.90;;;;;;5093089;28;20048;-77
2021/12/21 13:21:48;;;;;;;6.30;4.20;;;2.50;99.90;;;;;;5075538;28;20062;-77
2021/12/21 13:24:21;;;;;;;7.07;4.43;;;2.60;99.90;;;;;;5075235;28;20384;-77
2021/12/21 13:26:52;;;;;;;6.30;4.38;;;3.20;99.90;;;;;;5058934;28;20109;-78
2021/12/21 13:29:21;;;;;;;5.55;3.63;;;2.90;99.90;;;;;;5093217;28;20051;-79
2021/12/21 13:31:48;;;;;;;8.95;4.43;;;2.60;99.90;;;;;;5093161;28;20148;-77
2021/12/21 13:34:15;;;;;;;7.03;4.40;;;3.80;99.90;;;;;;5093173;28;20044;-78
2021/12/21 13:36:47;;;;;;;8.30;4.15;;;2.70;99.90;;;;;;5074491;28;20580;-78
2021/12/21 13:39:22;;;;;;;7.72;4.57;;;2.70;99.90;;;;;;5092938;28;20054;-79
2021/12/21 13:42:04;;;;;;;6.13;4.10;;;2.70;99.90;;;;;;5093209;28;20091;-76
2021/12/21 13:44:35;;;;;;;7.72;4.95;;;2.70;99.90;;;;;;5075069;28;20372;-77
2021/12/21 13:47:21;;;;;;;7.53;4.53;;;2.70;99.90;;;;;;5093059;28;20506;-76
2021/12/21 13:49:50;;;;;;;8.95;3.90;;;2.70;99.90;;;;;;5092920;28;20105;-77
2021/12/21 13:52:18;;;;;;;8.57;4.38;;;2.60;99.90;;;;;;5093136;28;20044;-77
2021/12/21 13:54:44;;;;;;;8.05;5.13;;;2.60;99.90;;;;;;5092999;28;20044;-77
2021/12/21 13:57:10;;;;;;;7.47;4.53;;;2.50;99.90;;;;;;5075080;28;20048;-75
2021/12/21 13:59:36;;;;;;;7.63;4.00;;;2.50;99.90;;;;;;5092920;28;20083;-76
2021/12/21 14:02:07;;;;;;;7.63;4.63;;;2.50;99.90;;;;;;5075061;28;20271;-75